Time;durP1;ratioP1;P1;durP2;ratioP2;P2;SDS_P1;SDS_P2;PMS_P1;PMS_P2;Temp;Humidity;BMP_temperature;BMP_pressure;BME280_temperature;BME280_humidity;BME280_pressure;Samples;Min_cycle;Max_cycle;Signal;HPM_P1;HPM_P2
2024/01/11 00:01:25;;;;;;;48.03;28.45;;;0.50;99.90;;;;;;5074060;28;20104;-74
2024/01/11 00:03:51;;;;;;;46.70;27.00;;;0.50;99.90;;;;;;5072981;28;20032;-73
2024/01/11 00:06:16;;;;;;;51.22;29.95;;;0.60;99.90;;;;;;5073004;28;20024;-73
2024/01/11 00:08:42;;;;;;;48.35;28.58;;;0.60;99.90;;;;;;5073732;28;20025;-73
2024/01/11 00:11:08;;;;;;;51.67;29.88;;;0.60;99.90;;;;;;5073755;28;20031;-74
2024/01/11 00:13:33;;;;;;;51.22;30.13;;;0.60;99.90;;;;;;5073027;28;20021;-73
2024/01/11 00:15:59;;;;;;;52.03;30.02;;;0.60;99.90;;;;;;5073407;28;20074;-74
2024/01/11 00:18:25;;;;;;;51.45;30.50;;;0.60;99.90;;;;;;5074189;28;20035;-73
2024/01/11 00:20:51;;;;;;;52.92;30.88;;;0.60;99.90;;;;;;5075022;28;20078;-73
2024/01/11 00:23:17;;;;;;;48.47;28.42;;;0.60;99.90;;;;;;5073164;28;20086;-73
2024/01/11 00:25:42;;;;;;;46.85;28.15;;;0.60;99.90;;;;;;5072391;28;20024;-71
2024/01/11 00:28:08;;;;;;;51.78;30.27;;;0.60;99.90;;;;;;5073156;28;20032;-74
2024/01/11 00:30:34;;;;;;;53.08;29.77;;;0.60;99.90;;;;;;5073096;28;20067;-73
2024/01/11 00:32:59;;;;;;;52.22;30.85;;;0.60;99.90;;;;;;5072648;28;20021;-73
2024/01/11 00:35:25;;;;;;;55.08;31.38;;;0.60;99.90;;;;;;5072141;28;20023;-74
2024/01/11 00:37:50;;;;;;;59.75;32.58;;;0.70;99.90;;;;;;5073181;28;20028;-74
2024/01/11 00:40:16;;;;;;;54.17;31.58;;;0.60;99.90;;;;;;5073469;28;20361;-73
2024/01/11 00:42:42;;;;;;;55.95;32.67;;;0.60;99.90;;;;;;5072186;28;20029;-74
2024/01/11 00:45:08;;;;;;;63.30;33.83;;;0.60;99.90;;;;;;5071596;28;20059;-73
2024/01/11 00:47:33;;;;;;;61.55;34.72;;;0.60;99.90;;;;;;5072839;28;20498;-73
2024/01/11 00:49:59;;;;;;;56.25;33.88;;;0.50;99.90;;;;;;5073519;28;20024;-74
2024/01/11 00:52:24;;;;;;;61.38;34.53;;;0.50;99.90;;;;;;5073628;28;20120;-73
2024/01/11 00:54:50;;;;;;;59.28;33.70;;;0.50;99.90;;;;;;5073445;28;20021;-73
2024/01/11 00:57:15;;;;;;;63.33;34.80;;;0.40;99.90;;;;;;5074257;28;20033;-75
2024/01/11 00:59:41;;;;;;;64.93;35.72;;;0.40;99.90;;;;;;5072769;28;20483;-73
2024/01/11 01:02:07;;;;;;;61.58;34.42;;;0.40;99.90;;;;;;5074723;28;20387;-73
2024/01/11 01:04:32;;;;;;;62.65;35.13;;;0.50;99.90;;;;;;5073796;28;20499;-73
2024/01/11 01:06:58;;;;;;;64.18;35.83;;;0.50;99.90;;;;;;5074053;28;20032;-73
2024/01/11 01:09:24;;;;;;;67.40;37.08;;;0.50;99.90;;;;;;5086847;28;20104;-73
2024/01/11 01:11:50;;;;;;;62.38;34.42;;;0.50;99.90;;;;;;5081008;28;20016;-75
2024/01/11 01:14:15;;;;;;;66.57;37.33;;;0.40;99.90;;;;;;5076768;28;20021;-74
2024/01/11 01:16:41;;;;;;;70.63;39.13;;;0.50;99.90;;;;;;5073796;28;20115;-74
2024/01/11 01:19:07;;;;;;;68.07;38.25;;;0.30;99.90;;;;;;5072105;28;20469;-73
2024/01/11 01:21:32;;;;;;;66.53;37.45;;;0.40;99.90;;;;;;5073309;28;20115;-75
2024/01/11 01:23:58;;;;;;;66.82;37.70;;;0.30;99.90;;;;;;5072986;28;20446;-73
2024/01/11 01:26:24;;;;;;;66.57;37.50;;;0.40;99.90;;;;;;5073281;28;20085;-74
2024/01/11 01:28:49;;;;;;;71.38;37.97;;;0.40;99.90;;;;;;5073215;28;20016;-73
2024/01/11 01:31:15;;;;;;;72.25;41.92;;;0.40;99.90;;;;;;5073052;28;20024;-73
2024/01/11 01:33:40;;;;;;;74.65;41.28;;;0.40;99.90;;;;;;5072626;28;20052;-72
2024/01/11 01:36:09;;;;;;;72.95;40.85;;;0.40;99.90;;;;;;5074310;28;20020;-74
2024/01/11 01:38:35;;;;;;;74.80;41.55;;;0.30;99.90;;;;;;5073077;28;20111;-74
2024/01/11 01:41:01;;;;;;;77.30;41.67;;;0.40;99.90;;;;;;5073133;28;20064;-73
2024/01/11 01:43:26;;;;;;;75.57;41.15;;;0.30;99.90;;;;;;5072741;28;20032;-73
2024/01/11 01:45:52;;;;;;;76.20;42.63;;;0.30;99.90;;;;;;5072713;28;20033;-72
2024/01/11 01:48:18;;;;;;;74.65;40.50;;;0.30;99.90;;;;;;5073472;28;20035;-73
2024/01/11 01:50:50;;;;;;;74.65;41.05;;;0.20;99.90;;;;;;5072783;28;20032;-74
2024/01/11 01:53:19;;;;;;;79.32;42.30;;;0.20;99.90;;;;;;5073548;28;20020;-73
2024/01/11 01:55:45;;;;;;;79.85;42.65;;;0.20;99.90;;;;;;5072446;28;20029;-72
2024/01/11 01:58:12;;;;;;;82.25;42.97;;;0.20;99.90;;;;;;5072671;28;20074;-73
2024/01/11 02:00:37;;;;;;;74.88;40.20;;;0.20;99.90;;;;;;5072523;28;20325;-73
2024/01/11 02:03:04;;;;;;;77.95;42.58;;;0.20;99.90;;;;;;5072509;28;20021;-73
2024/01/11 02:05:30;;;;;;;76.32;40.70;;;0.30;99.90;;;;;;5073371;28;20029;-74
2024/01/11 02:07:57;;;;;;;77.65;41.88;;;0.20;99.90;;;;;;5072103;28;20498;-73
2024/01/11 02:10:24;;;;;;;84.90;42.80;;;0.10;99.90;;;;;;5072222;28;20028;-74
2024/01/11 02:12:50;;;;;;;81.32;43.33;;;0.20;99.90;;;;;;5072404;28;20376;-72
2024/01/11 02:15:15;;;;;;;83.82;44.80;;;0.20;99.90;;;;;;5070622;28;20035;-73
2024/01/11 02:17:41;;;;;;;91.45;46.80;;;0.20;99.90;;;;;;5072145;28;20082;-73
2024/01/11 02:20:07;;;;;;;91.10;46.25;;;0.20;99.90;;;;;;5072476;28;20391;-73
2024/01/11 02:22:40;;;;;;;89.47;45.42;;;0.20;99.90;;;;;;5072167;28;20021;-73
2024/01/11 02:25:06;;;;;;;92.43;46.17;;;0.20;99.90;;;;;;5071508;28;20078;-73
2024/01/11 02:27:47;;;;;;;92.85;46.95;;;0.20;99.90;;;;;;5071536;28;20060;-74
2024/01/11 02:30:13;;;;;;;94.45;46.25;;;0.30;99.90;;;;;;5070728;28;20025;-73
2024/01/11 02:32:39;;;;;;;97.45;46.90;;;0.30;99.90;;;;;;5072520;28;20020;-74
2024/01/11 02:35:06;;;;;;;94.38;45.75;;;0.20;99.90;;;;;;5072529;28;20017;-73
2024/01/11 02:37:32;;;;;;;88.45;45.30;;;0.20;99.90;;;;;;5071273;28;20402;-73
2024/01/11 02:39:57;;;;;;;88.10;44.97;;;0.20;99.90;;;;;;5071707;28;20100;-74
2024/01/11 02:42:23;;;;;;;90.43;44.33;;;0.20;99.90;;;;;;5070825;28;20383;-73
2024/01/11 02:44:49;;;;;;;89.95;44.95;;;0.20;99.90;;;;;;5071772;28;20052;-74
2024/01/11 02:47:14;;;;;;;87.90;43.88;;;0.20;99.90;;;;;;5076857;28;20384;-73
2024/01/11 02:49:40;;;;;;;83.25;42.17;;;0.20;99.90;;;;;;5086208;28;20016;-74
2024/01/11 02:52:05;;;;;;;77.88;38.28;;;0.20;99.90;;;;;;5091878;28;20074;-74
2024/01/11 02:54:31;;;;;;;84.78;41.53;;;0.20;99.90;;;;;;5090799;28;20024;-74
2024/01/11 02:56:57;;;;;;;85.68;41.70;;;0.30;99.90;;;;;;5091932;28;20085;-75
2024/01/11 02:59:23;;;;;;;89.18;43.05;;;0.30;99.90;;;;;;5094705;28;20028;-74
2024/01/11 03:01:49;;;;;;;91.97;44.67;;;0.30;99.90;;;;;;5103683;28;20020;-74
2024/01/11 03:04:15;;;;;;;87.88;44.58;;;0.30;99.90;;;;;;5091737;28;20399;-74
2024/01/11 03:06:41;;;;;;;82.53;42.08;;;0.40;99.90;;;;;;5094626;28;20387;-73
2024/01/11 03:09:07;;;;;;;88.78;43.90;;;;;;;;;;5107169;28;20038;-74
2024/01/11 03:11:33;;;;;;;95.15;47.08;;;;;;;;;;5096833;28;20062;-73
2024/01/11 03:13:59;;;;;;;93.68;45.85;;;;;;;;;;5095422;28;20056;-73
2024/01/11 03:16:25;;;;;;;98.35;49.20;;;;;;;;;;5096199;28;20439;-74
2024/01/11 03:18:51;;;;;;;93.18;45.90;;;;;;;;;;5095857;28;20031;-74
2024/01/11 03:21:18;;;;;;;93.18;45.65;;;;;;;;;;5095956;28;20024;-73
2024/01/11 03:23:44;;;;;;;94.28;47.50;;;;;;;;;;5094816;28;20016;-73
2024/01/11 03:26:14;;;;;;;98.43;47.15;;;;;;;;;;5095741;28;20031;-73
2024/01/11 03:28:40;;;;;;;91.20;45.22;;;;;;;;;;5095423;28;20444;-73
2024/01/11 03:31:06;;;;;;;90.25;44.58;;;;;;;;;;5095950;28;20020;-73
2024/01/11 03:33:32;;;;;;;82.63;42.95;;;;;;;;;;5101674;28;20114;-73
2024/01/11 03:35:58;;;;;;;85.13;42.15;;;;;;;;;;5103340;28;20104;-72
2024/01/11 03:38:24;;;;;;;86.13;43.58;;;;;;;;;;5097447;28;20031;-74
2024/01/11 03:40:51;;;;;;;93.18;46.97;;;;;;;;;;5105917;28;20038;-72
2024/01/11 03:43:18;;;;;;;85.95;44.97;;;;;;;;;;5099979;28;20031;-74
2024/01/11 03:45:44;;;;;;;88.80;44.72;;;;;;;;;;5096560;28;20024;-73
2024/01/11 03:48:10;;;;;;;116.45;53.55;;;;;;;;;;5099478;28;20610;-73
2024/01/11 03:50:36;;;;;;;145.77;63.88;;;;;;;;;;5096462;28;20028;-73
2024/01/11 03:53:03;;;;;;;146.05;63.85;;;;;;;;;;5097873;28;20098;-72
2024/01/11 03:55:29;;;;;;;139.32;62.10;;;;;;;;;;5102700;28;20027;-74
2024/01/11 03:57:54;;;;;;;145.50;63.80;;;;;;;;;;5105221;28;20069;-72
2024/01/11 04:00:20;;;;;;;148.98;65.47;;;;;;;;;;5100900;28;20085;-75
2024/01/11 04:02:46;;;;;;;136.52;61.97;;;;;;;;;;5095582;28;20035;-73
2024/01/11 04:05:12;;;;;;;132.20;61.47;;;;;;;;;;5098251;28;20043;-73
2024/01/11 04:07:38;;;;;;;124.22;59.42;;;;;;;;;;5100642;28;20059;-72
2024/01/11 04:10:05;;;;;;;115.68;56.38;;;;;;;;;;5094563;28;20070;-73
2024/01/11 04:12:31;;;;;;;121.55;58.50;;;;;;;;;;5094640;28;20020;-74
2024/01/11 04:14:57;;;;;;;110.38;55.42;;;;;;;;;;5094606;28;20054;-72
2024/01/11 04:17:23;;;;;;;106.05;52.10;;;;;;;;;;5096607;28;20073;-74
2024/01/11 04:19:49;;;;;;;105.03;52.95;;;;;;;;;;5096892;28;20028;-74
2024/01/11 04:22:15;;;;;;;97.72;50.83;;;;;;;;;;5094788;28;20329;-74
2024/01/11 04:24:42;;;;;;;96.40;48.83;;;;;;;;;;5092363;28;20043;-73
2024/01/11 04:27:08;;;;;;;92.18;46.72;;;;;;;;;;5094345;28;20514;-73
2024/01/11 04:29:34;;;;;;;90.53;46.45;;;;;;;;;;5094411;28;20028;-73
2024/01/11 04:32:01;;;;;;;99.55;48.33;;;;;;;;;;5094717;28;20020;-74
2024/01/11 04:34:27;;;;;;;107.38;50.88;;;;;;;;;;5094806;28;20043;-77
2024/01/11 04:36:53;;;;;;;104.28;51.90;;;;;;;;;;5098418;28;20036;-73
2024/01/11 04:39:19;;;;;;;110.65;53.42;;;;;;;;;;5095774;28;20031;-73
2024/01/11 04:41:45;;;;;;;106.05;52.50;;;;;;;;;;5095165;28;20066;-75
2024/01/11 04:44:11;;;;;;;103.50;51.58;;;;;;;;;;5094667;28;20020;-74
2024/01/11 04:46:37;;;;;;;108.05;52.67;;;;;;;;;;5093607;28;20034;-74
2024/01/11 04:49:03;;;;;;;106.43;52.90;;;;;;;;;;5094273;28;20089;-72
2024/01/11 04:51:29;;;;;;;106.82;53.67;;;;;;;;;;5093978;28;20031;-73
2024/01/11 04:53:55;;;;;;;116.07;56.38;;;;;;;;;;5093787;28;20441;-75
2024/01/11 04:56:21;;;;;;;112.57;55.40;;;;;;;;;;5093789;28;20024;-73
2024/01/11 04:58:47;;;;;;;120.47;57.70;;;;;;;;;;5077872;28;20023;-73
2024/01/11 05:01:17;;;;;;;110.85;55.28;;;;;;;;;;5074427;28;20013;-73
2024/01/11 05:03:43;;;;;;;106.53;53.67;;;;;;;;;;5074544;28;20025;-73
2024/01/11 05:06:15;;;;;;;110.35;52.63;;;;;;;;;;5071414;28;20036;-72
2024/01/11 05:08:41;;;;;;;108.25;51.92;;;;;;;;;;5070190;28;20459;-74
2024/01/11 05:11:07;;;;;;;97.13;47.08;;;;;;;;;;5072398;28;20034;-73
2024/01/11 05:13:33;;;;;;;96.25;47.42;;;;;;;;;;5074573;28;20036;-75
2024/01/11 05:15:59;;;;;;;98.88;50.13;;;;;;;;;;5073408;28;20017;-74
2024/01/11 05:18:25;;;;;;;98.03;49.08;;;;;;;;;;5073462;28;20527;-72
2024/01/11 05:20:51;;;;;;;101.60;50.25;;;;;;;;;;5073502;28;20043;-74
2024/01/11 05:23:17;;;;;;;99.32;48.78;;;;;;;;;;5073108;28;20103;-72
2024/01/11 05:25:43;;;;;;;90.65;44.90;;;;;;;;;;5073449;28;20322;-73
2024/01/11 05:28:09;;;;;;;99.05;47.22;;;;;;;;;;5073199;28;20025;-72
2024/01/11 05:30:35;;;;;;;94.68;45.00;;;;;;;;;;5073091;28;20537;-72
2024/01/11 05:33:01;;;;;;;91.75;44.50;;;;;;;;;;5072889;28;20063;-71
2024/01/11 05:35:30;;;;;;;97.65;46.40;;;;;;;;;;5072737;28;20028;-73
2024/01/11 05:37:56;;;;;;;90.15;43.67;;;;;;;;;;5073562;28;20032;-73
2024/01/11 05:40:22;;;;;;;91.18;42.28;;;;;;;;;;5072754;28;20097;-74
2024/01/11 05:42:48;;;;;;;91.75;43.05;;;;;;;;;;5073107;28;20399;-75
2024/01/11 05:45:16;;;;;;;91.38;42.72;;;;;;;;;;5069844;28;20399;-72
2024/01/11 05:47:43;;;;;;;90.57;40.88;;;;;;;;;;5072937;28;20024;-77
2024/01/11 05:50:09;;;;;;;91.65;40.00;;;;;;;;;;5071477;28;20016;-75
2024/01/11 05:52:35;;;;;;;90.03;40.03;;;;;;;;;;5073312;28;20039;-74
2024/01/11 05:55:01;;;;;;;89.63;37.33;;;;;;;;;;5071963;28;20337;-74
2024/01/11 05:57:27;;;;;;;86.25;36.92;;;;;;;;;;5072518;28;20024;-73
2024/01/11 05:59:52;;;;;;;89.75;38.58;;;;;;;;;;5072354;28;20541;-74
2024/01/11 06:02:20;;;;;;;101.72;40.65;;;;;;;;;;5072187;28;20024;-73
2024/01/11 06:04:47;;;;;;;83.93;35.53;;;;;;;;;;5072109;28;20133;-74
2024/01/11 06:07:13;;;;;;;80.35;32.30;;;;;;;;;;5071860;28;20025;-71
2024/01/11 06:09:39;;;;;;;84.50;33.42;;;;;;;;;;5071781;28;20021;-74
2024/01/11 06:12:05;;;;;;;78.40;32.65;;;;;;;;;;5071781;28;20127;-73
2024/01/11 06:14:31;;;;;;;79.18;31.27;;;;;;;;;;5071533;28;20028;-72
2024/01/11 06:16:57;;;;;;;72.18;29.65;;;;;;;;;;5072591;28;20028;-73
2024/01/11 06:19:23;;;;;;;73.40;30.63;;;;;;;;;;5072247;28;20062;-74
2024/01/11 06:21:49;;;;;;;81.43;29.15;;;;;;;;;;5072623;28;20023;-74
2024/01/11 06:24:15;;;;;;;72.32;29.02;;;;;;;;;;5068797;28;20036;-73
2024/01/11 06:26:41;;;;;;;77.63;29.83;;;;;;;;;;5071172;28;20395;-74
2024/01/11 06:29:07;;;;;;;75.05;29.38;;;;;;;;;;5071294;28;20020;-74
2024/01/11 06:31:33;;;;;;;74.90;28.40;;;;;;;;;;5069632;28;20380;-73
2024/01/11 06:33:59;;;;;;;74.30;28.10;;;;;;;;;;5070285;28;20019;-73
2024/01/11 06:36:25;;;;;;;78.22;29.05;;;;;;;;;;5072835;28;20484;-73
2024/01/11 06:38:51;;;;;;;71.32;27.70;;;;;;;;;;5071074;28;20119;-74
2024/01/11 06:41:17;;;;;;;81.15;29.33;;;;;;;;;;5068688;28;20016;-74
2024/01/11 06:43:43;;;;;;;74.95;27.92;;;;;;;;;;5070594;28;20262;-74
2024/01/11 06:46:10;;;;;;;73.30;29.20;;;;;;;;;;5071118;28;20052;-74
2024/01/11 06:48:36;;;;;;;84.72;31.65;;;;;;;;;;5071227;28;20039;-74
2024/01/11 06:51:03;;;;;;;83.50;30.98;;;;;;;;;;5068948;28;20120;-74
2024/01/11 06:53:29;;;;;;;86.65;31.38;;;;;;;;;;5070350;28;20060;-74
2024/01/11 06:55:55;;;;;;;92.93;33.33;;;;;;;;;;5070842;28;20071;-73
2024/01/11 06:58:24;;;;;;;86.38;30.00;;;;;;;;;;5071123;28;20060;-72
2024/01/11 07:00:50;;;;;;;85.28;30.50;;;;;;;;;;5069641;28;20340;-77
2024/01/11 07:03:17;;;;;;;90.13;32.28;;;;;;;;;;5071385;28;20028;-72
2024/01/11 07:05:43;;;;;;;94.20;32.40;;;;;;;;;;5070137;28;20021;-72
2024/01/11 07:08:09;;;;;;;94.30;32.65;;;;;;;;;;5069908;28;20032;-75
2024/01/11 07:10:35;;;;;;;89.53;32.15;;;;;;;;;;5070856;28;20019;-73
2024/01/11 07:13:01;;;;;;;84.82;30.17;;;;;;;;;;5070799;28;20013;-73
2024/01/11 07:15:27;;;;;;;83.10;30.27;;;;;;;;;;5071715;28;20349;-73
2024/01/11 07:17:53;;;;;;;88.45;32.20;;;;;;;;;;5071948;28;20100;-74
2024/01/11 07:20:19;;;;;;;86.60;30.48;;;;;;;;;;5071285;28;20111;-74
2024/01/11 07:22:45;;;;;;;85.65;30.73;;;;;;;;;;5071020;28;20032;-72
2024/01/11 07:25:11;;;;;;;85.60;32.22;;;;;;;;;;5069121;28;20037;-75
2024/01/11 07:27:37;;;;;;;84.57;29.83;;;;;;;;;;5071703;28;20021;-74
2024/01/11 07:30:06;;;;;;;88.53;30.27;;;;;;;;;;5071573;28;20401;-74
2024/01/11 07:32:32;;;;;;;84.68;29.15;;;1.90;99.90;;;;;;5073402;28;20025;-73
2024/01/11 07:34:57;;;;;;;87.22;29.33;;;2.00;99.90;;;;;;5074981;28;20020;-74
2024/01/11 07:37:25;;;;;;;81.47;29.20;;;1.90;99.90;;;;;;5072183;28;20416;-74
2024/01/11 07:39:51;;;;;;;86.07;29.15;;;2.10;99.90;;;;;;5071319;28;20464;-74
2024/01/11 07:42:16;;;;;;;96.28;32.53;;;2.20;99.90;;;;;;5071761;28;20100;-76
2024/01/11 07:44:42;;;;;;;103.03;33.88;;;2.40;99.90;;;;;;5072514;28;20024;-74
2024/01/11 07:47:08;;;;;;;102.40;37.40;;;2.40;99.90;;;;;;5070812;28;20055;-73
2024/01/11 07:49:33;;;;;;;104.28;37.53;;;2.50;99.90;;;;;;5071372;28;20016;-71
2024/01/11 07:51:59;;;;;;;67.60;25.23;;;2.60;99.90;;;;;;5072231;28;20021;-74
2024/01/11 07:54:25;;;;;;;61.35;23.23;;;2.60;99.90;;;;;;5075494;28;20042;-74
2024/01/11 07:56:50;;;;;;;64.53;24.65;;;2.40;99.90;;;;;;5074476;28;20063;-72
2024/01/11 07:59:16;;;;;;;69.00;26.38;;;2.30;99.90;;;;;;5074771;28;20387;-74
2024/01/11 08:01:41;;;;;;;66.45;25.50;;;2.20;99.90;;;;;;5079188;28;20031;-74
2024/01/11 08:04:07;;;;;;;65.13;25.00;;;2.10;99.90;;;;;;5075194;28;20118;-73
2024/01/11 08:06:33;;;;;;;66.63;24.70;;;2.00;99.90;;;;;;5075214;28;20145;-76
2024/01/11 08:09:00;;;;;;;69.05;25.08;;;1.90;99.90;;;;;;5076569;28;20025;-72
2024/01/11 08:11:25;;;;;;;64.40;25.42;;;1.90;99.90;;;;;;5076106;28;20543;-77
2024/01/11 08:13:53;;;;;;;64.13;24.25;;;1.90;99.90;;;;;;5074228;28;20024;-72
2024/01/11 08:16:19;;;;;;;62.33;23.63;;;1.90;99.90;;;;;;5073597;28;20395;-72
2024/01/11 08:18:45;;;;;;;65.60;24.83;;;1.90;99.90;;;;;;5078156;28;20029;-71
2024/01/11 08:21:11;;;;;;;64.82;23.75;;;1.80;99.90;;;;;;5073498;28;20036;-72
2024/01/11 08:23:44;;;;;;;60.85;23.40;;;1.80;99.90;;;;;;5082007;28;20040;-71
2024/01/11 08:26:12;;;;;;;66.00;23.08;;;1.70;99.90;;;;;;5075724;28;20024;-71
2024/01/11 08:28:37;;;;;;;63.40;22.67;;;1.70;99.90;;;;;;5072999;28;20029;-72
2024/01/11 08:31:04;;;;;;;65.97;23.80;;;1.70;99.90;;;;;;5074987;28;20093;-72
2024/01/11 08:33:30;;;;;;;56.47;21.52;;;1.70;99.90;;;;;;5074059;28;20020;-70
2024/01/11 08:35:56;;;;;;;70.47;22.38;;;1.70;99.90;;;;;;5074029;28;20028;-73
2024/01/11 08:38:22;;;;;;;56.13;21.33;;;1.70;99.90;;;;;;5074143;28;20044;-72
2024/01/11 08:40:48;;;;;;;67.78;23.52;;;1.70;99.90;;;;;;5074417;28;20457;-72
2024/01/11 08:43:13;;;;;;;70.68;23.98;;;1.70;99.90;;;;;;5075030;28;20476;-72
2024/01/11 08:45:39;;;;;;;69.57;23.80;;;1.70;99.90;;;;;;5073380;28;20082;-72
2024/01/11 08:48:05;;;;;;;71.25;24.02;;;1.60;99.90;;;;;;5074084;28;20032;-71
2024/01/11 08:50:30;;;;;;;68.75;24.23;;;1.70;99.90;;;;;;5073586;28;20364;-71
2024/01/11 08:52:56;;;;;;;72.18;24.75;;;1.70;99.90;;;;;;5073456;28;20020;-71
2024/01/11 08:55:21;;;;;;;83.00;24.83;;;1.70;99.90;;;;;;5073186;28;20400;-72
2024/01/11 08:57:47;;;;;;;71.50;24.48;;;1.70;99.90;;;;;;5073101;28;20468;-70
2024/01/11 09:00:17;;;;;;;64.90;24.15;;;1.70;99.90;;;;;;5072992;28;20095;-74
2024/01/11 09:02:43;;;;;;;66.93;23.02;;;1.70;99.90;;;;;;5073629;28;20441;-72
2024/01/11 09:05:09;;;;;;;69.68;24.85;;;1.70;99.90;;;;;;5073163;28;20082;-72
2024/01/11 09:07:34;;;;;;;63.72;23.80;;;1.80;99.90;;;;;;5073788;28;20112;-73
2024/01/11 09:10:00;;;;;;;62.85;22.17;;;1.80;99.90;;;;;;5073162;28;20016;-73
2024/01/11 09:12:25;;;;;;;58.17;21.70;;;1.80;99.90;;;;;;5073311;28;20024;-73
2024/01/11 09:14:51;;;;;;;61.75;23.35;;;1.80;99.90;;;;;;5073221;28;20207;-75
2024/01/11 09:17:17;;;;;;;63.03;20.42;;;1.90;99.90;;;;;;5072728;28;20028;-72
2024/01/11 09:19:42;;;;;;;60.88;20.98;;;2.00;99.90;;;;;;5073764;28;20536;-73
2024/01/11 09:22:10;;;;;;;62.75;20.77;;;2.00;99.90;;;;;;5073256;28;20059;-73
2024/01/11 09:24:37;;;;;;;54.58;18.40;;;2.00;99.90;;;;;;5072550;28;20037;-73
2024/01/11 09:27:03;;;;;;;50.85;18.25;;;2.00;99.90;;;;;;5072665;28;20032;-74
2024/01/11 09:29:29;;;;;;;57.92;20.77;;;2.00;99.90;;;;;;5073244;28;20438;-73
2024/01/11 09:31:55;;;;;;;50.88;17.83;;;2.00;99.90;;;;;;5073077;28;20031;-74
2024/01/11 09:34:20;;;;;;;58.30;18.60;;;1.90;99.90;;;;;;5072446;28;20016;-72
2024/01/11 09:36:46;;;;;;;62.40;21.90;;;1.90;99.90;;;;;;5072807;28;20016;-74
2024/01/11 09:39:13;;;;;;;54.60;19.25;;;2.00;99.90;;;;;;5075474;28;20032;-77
2024/01/11 09:41:46;;;;;;;63.00;20.88;;;1.90;99.90;;;;;;5075854;28;20044;-73
2024/01/11 09:44:12;;;;;;;60.33;21.65;;;1.90;99.90;;;;;;5073312;28;20359;-75
2024/01/11 09:46:38;;;;;;;56.85;20.55;;;1.90;99.90;;;;;;5072908;28;20242;-76
2024/01/11 09:49:04;;;;;;;51.90;19.50;;;1.90;99.90;;;;;;5073078;28;20021;-75
2024/01/11 09:51:31;;;;;;;52.13;18.05;;;2.00;99.90;;;;;;5073414;28;20698;-72
2024/01/11 09:53:59;;;;;;;55.88;20.75;;;2.10;99.90;;;;;;5072640;28;20107;-72
2024/01/11 09:56:27;;;;;;;62.45;18.33;;;2.10;99.90;;;;;;5076826;28;20016;-72
2024/01/11 09:58:53;;;;;;;52.13;19.27;;;2.10;99.90;;;;;;5075432;28;20156;-73
2024/01/11 10:01:19;;;;;;;50.22;17.70;;;2.10;99.90;;;;;;5074932;28;20049;-74
2024/01/11 10:03:47;;;;;;;48.47;17.52;;;2.10;99.90;;;;;;5072287;28;20036;-75
2024/01/11 10:06:15;;;;;;;54.55;18.85;;;2.10;99.90;;;;;;5072148;28;20028;-74
2024/01/11 10:08:41;;;;;;;49.80;17.63;;;2.10;99.90;;;;;;5072322;28;20039;-75
2024/01/11 10:11:07;;;;;;;53.55;17.67;;;2.10;99.90;;;;;;5072238;28;20017;-74
2024/01/11 10:13:35;;;;;;;49.63;17.65;;;2.10;99.90;;;;;;5071853;28;20479;-72
2024/01/11 10:16:15;;;;;;;52.00;18.90;;;2.20;99.90;;;;;;5072025;28;20025;-71
2024/01/11 10:18:41;;;;;;;48.45;18.85;;;2.20;99.90;;;;;;5072200;28;20025;-73
2024/01/11 10:21:09;;;;;;;50.50;17.73;;;2.20;99.90;;;;;;5072130;28;20032;-72
2024/01/11 10:23:36;;;;;;;58.10;20.13;;;2.20;99.90;;;;;;5071593;28;20215;-72
2024/01/11 10:26:02;;;;;;;54.50;18.65;;;2.20;99.90;;;;;;5072070;28;20028;-71
2024/01/11 10:28:28;;;;;;;51.30;19.90;;;2.20;99.90;;;;;;5071722;28;20059;-73
2024/01/11 10:30:55;;;;;;;52.05;21.00;;;2.20;99.90;;;;;;5072200;28;20056;-72
2024/01/11 10:33:21;;;;;;;48.33;19.25;;;2.20;99.90;;;;;;5071829;28;20107;-72
2024/01/11 10:35:49;;;;;;;46.95;19.67;;;2.20;99.90;;;;;;5076719;28;20390;-72
2024/01/11 10:38:15;;;;;;;50.33;19.90;;;2.20;99.90;;;;;;5076875;28;20021;-72
2024/01/11 10:40:42;;;;;;;51.10;19.80;;;2.20;99.90;;;;;;5077796;28;20025;-72
2024/01/11 10:43:13;;;;;;;52.60;21.15;;;2.30;99.90;;;;;;5076954;28;20395;-73
2024/01/11 10:45:38;;;;;;;53.75;21.75;;;2.40;99.90;;;;;;5072484;28;20036;-73
2024/01/11 10:48:14;;;;;;;53.60;21.30;;;2.50;99.90;;;;;;5072325;28;20388;-73
2024/01/11 10:50:45;;;;;;;55.75;23.67;;;2.50;99.90;;;;;;5072611;28;20023;-74
2024/01/11 10:53:17;;;;;;;55.80;23.27;;;2.50;99.90;;;;;;5072487;28;20013;-73
2024/01/11 10:55:44;;;;;;;50.65;22.60;;;2.50;99.90;;;;;;5072929;28;20024;-73
2024/01/11 10:58:11;;;;;;;56.15;24.13;;;2.60;99.90;;;;;;5072496;28;20490;-73
2024/01/11 11:00:37;;;;;;;63.05;26.15;;;2.60;99.90;;;;;;5071915;28;20070;-72
2024/01/11 11:03:06;;;;;;;55.63;23.17;;;;;;;;;;5071581;28;20069;-71
2024/01/11 11:05:35;;;;;;;60.25;25.17;;;;;;;;;;5071081;28;20349;-71
2024/01/11 11:08:02;;;;;;;52.85;22.00;;;;;;;;;;5071734;28;20027;-71
2024/01/11 11:10:29;;;;;;;50.60;22.13;;;;;;;;;;5071576;28;20059;-71
2024/01/11 11:12:57;;;;;;;55.55;23.88;;;;;;;;;;5070050;28;20021;-71
2024/01/11 11:15:24;;;;;;;57.05;23.58;;;;;;;;;;5069814;28;20013;-70
2024/01/11 11:17:52;;;;;;;52.00;22.63;;;;;;;;;;5071167;28;20025;-72
2024/01/11 11:20:18;;;;;;;56.17;24.23;;;;;;;;;;5071493;28;20514;-72
2024/01/11 11:22:48;;;;;;;59.92;25.00;;;;;;;;;;5071345;28;20377;-73
2024/01/11 11:25:27;;;;;;;64.97;26.75;;;3.00;99.90;;;;;;5069722;28;20032;-72
2024/01/11 11:27:53;;;;;;;58.22;25.90;;;3.00;99.90;;;;;;5071631;28;20031;-72
2024/01/11 11:30:20;;;;;;;64.68;27.88;;;3.00;99.90;;;;;;5074243;28;20366;-73
2024/01/11 11:32:46;;;;;;;58.42;26.15;;;3.00;99.90;;;;;;5074306;28;20395;-72
2024/01/11 11:35:11;;;;;;;73.28;28.75;;;2.90;99.90;;;;;;5073835;28;20016;-72
2024/01/11 11:37:38;;;;;;;63.42;28.58;;;2.90;99.90;;;;;;5075175;28;20391;-72
2024/01/11 11:40:05;;;;;;;64.22;27.95;;;3.00;99.90;;;;;;5074211;28;20028;-74
2024/01/11 11:42:34;;;;;;;68.53;28.40;;;3.00;99.90;;;;;;5074245;28;20103;-73
2024/01/11 11:44:59;;;;;;;72.25;30.15;;;3.00;99.90;;;;;;5074011;28;20039;-72
2024/01/11 11:47:34;;;;;;;73.65;30.25;;;3.10;99.90;;;;;;5074592;28;20021;-73
2024/01/11 11:50:10;;;;;;;75.45;31.23;;;3.10;99.90;;;;;;5075178;28;20028;-73
2024/01/11 11:52:41;;;;;;;79.28;33.08;;;3.10;99.90;;;;;;5073974;28;20454;-73
2024/01/11 11:55:08;;;;;;;73.38;32.08;;;3.10;99.90;;;;;;5073966;28;20025;-74
2024/01/11 11:57:36;;;;;;;72.18;31.83;;;3.10;99.90;;;;;;5074974;28;20033;-72
2024/01/11 12:00:05;;;;;;;77.90;33.65;;;3.10;99.90;;;;;;5075202;28;20024;-74
2024/01/11 12:02:31;;;;;;;82.45;34.50;;;3.10;99.90;;;;;;5076487;28;20025;-73
2024/01/11 12:04:57;;;;;;;80.65;34.95;;;3.10;99.90;;;;;;5061748;28;20523;-72
2024/01/11 12:07:23;;;;;;;90.68;38.22;;;3.10;99.90;;;;;;5053947;28;20112;-76
2024/01/11 12:09:50;;;;;;;84.70;36.85;;;3.20;99.90;;;;;;5054647;28;20021;-73
2024/01/11 12:12:21;;;;;;;86.63;38.05;;;3.10;99.90;;;;;;5055816;28;20379;-73
2024/01/11 12:14:47;;;;;;;83.15;35.13;;;3.10;99.90;;;;;;5057318;28;20017;-75
2024/01/11 12:17:13;;;;;;;94.15;39.28;;;3.10;99.90;;;;;;5057047;28;20025;-73
2024/01/11 12:19:39;;;;;;;99.18;40.22;;;3.20;99.90;;;;;;5053347;28;20025;-74
2024/01/11 12:22:04;;;;;;;101.63;38.15;;;3.10;99.90;;;;;;5053840;28;20025;-73
2024/01/11 12:24:30;;;;;;;92.05;39.22;;;3.10;99.90;;;;;;5052929;28;20040;-72
2024/01/11 12:27:00;;;;;;;90.88;38.42;;;3.10;99.90;;;;;;5053694;28;20100;-73
2024/01/11 12:29:28;;;;;;;91.90;38.58;;;3.10;99.90;;;;;;5053572;28;20060;-73
2024/01/11 12:31:53;;;;;;;93.75;38.22;;;3.10;99.90;;;;;;5053209;28;20028;-74
2024/01/11 12:34:19;;;;;;;94.70;39.45;;;3.10;99.90;;;;;;5052741;28;20020;-72
2024/01/11 12:36:45;;;;;;;98.70;40.05;;;3.10;99.90;;;;;;5052825;28;20029;-71
2024/01/11 12:39:13;;;;;;;97.72;39.70;;;3.10;99.90;;;;;;5051519;28;20021;-72
2024/01/11 12:41:39;;;;;;;90.32;39.50;;;3.20;99.90;;;;;;5052827;28;20080;-73
2024/01/11 12:44:05;;;;;;;103.03;39.22;;;3.30;99.90;;;;;;5052009;28;20028;-74
2024/01/11 12:46:30;;;;;;;96.63;41.28;;;3.30;99.90;;;;;;5052579;28;20053;-72
2024/01/11 12:48:56;;;;;;;96.30;39.40;;;3.40;99.90;;;;;;5052841;28;20025;-73
2024/01/11 12:51:22;;;;;;;101.07;41.33;;;3.40;99.90;;;;;;5053777;28;20033;-73
2024/01/11 12:53:48;;;;;;;97.97;42.30;;;3.50;99.90;;;;;;5052731;28;20039;-73
2024/01/11 12:56:15;;;;;;;105.78;43.53;;;3.60;99.90;;;;;;5053713;28;20601;-74
2024/01/11 12:58:42;;;;;;;94.53;41.13;;;3.60;99.90;;;;;;5052870;28;20111;-73
2024/01/11 13:01:08;;;;;;;93.47;40.72;;;3.70;99.90;;;;;;5053144;28;20028;-72
2024/01/11 13:03:38;;;;;;;101.07;41.15;;;3.70;99.90;;;;;;5052598;28;20029;-72
2024/01/11 13:06:04;;;;;;;93.03;39.65;;;3.70;99.90;;;;;;5052450;28;20464;-71